Map

Track Data

SID SEASON NUMBER BASIN SUBBASIN NAME ISO_TIME NATURE LAT LON WMO_WIND WMO_PRES WMO_AGENCY TRACK_TYPE DIST2LAND LANDFALL IFLAG USA_AGENCY USA_ATCF_ID USA_LAT USA_LON USA_RECORD USA_STATUS USA_WIND USA_PRES USA_SSHS USA_R34_NE USA_R34_SE USA_R34_SW USA_R34_NW USA_R50_NE USA_R50_SE USA_R50_SW USA_R50_NW USA_R64_NE USA_R64_SE USA_R64_SW USA_R64_NW USA_POCI USA_ROCI USA_RMW USA_EYE TOKYO_LAT TOKYO_LON TOKYO_GRADE TOKYO_WIND TOKYO_PRES TOKYO_R50_DIR TOKYO_R50_LONG TOKYO_R50_SHORT TOKYO_R30_DIR TOKYO_R30_LONG TOKYO_R30_SHORT TOKYO_LAND CMA_LAT CMA_LON CMA_CAT CMA_WIND CMA_PRES HKO_LAT HKO_LON HKO_CAT HKO_WIND HKO_PRES NEWDELHI_LAT NEWDELHI_LON NEWDELHI_GRADE NEWDELHI_WIND NEWDELHI_PRES NEWDELHI_CI NEWDELHI_DP NEWDELHI_POCI REUNION_LAT REUNION_LON REUNION_TYPE REUNION_WIND REUNION_PRES REUNION_TNUM REUNION_CI REUNION_RMW REUNION_R34_NE REUNION_R34_SE REUNION_R34_SW REUNION_R34_NW REUNION_R50_NE REUNION_R50_SE REUNION_R50_SW REUNION_R50_NW REUNION_R64_NE REUNION_R64_SE REUNION_R64_SW REUNION_R64_NW BOM_LAT BOM_LON BOM_TYPE BOM_WIND BOM_PRES BOM_TNUM BOM_CI BOM_RMW BOM_R34_NE BOM_R34_SE BOM_R34_SW BOM_R34_NW BOM_R50_NE BOM_R50_SE BOM_R50_SW BOM_R50_NW BOM_R64_NE BOM_R64_SE BOM_R64_SW BOM_R64_NW BOM_ROCI BOM_POCI BOM_EYE BOM_POS_METHOD BOM_PRES_METHOD NADI_LAT NADI_LON NADI_CAT NADI_WIND NADI_PRES WELLINGTON_LAT WELLINGTON_LON WELLINGTON_WIND WELLINGTON_PRES DS824_LAT DS824_LON DS824_STAGE DS824_WIND DS824_PRES TD9636_LAT TD9636_LON TD9636_STAGE TD9636_WIND TD9636_PRES TD9635_LAT TD9635_LON TD9635_WIND TD9635_PRES TD9635_ROCI NEUMANN_LAT NEUMANN_LON NEUMANN_CLASS NEUMANN_WIND NEUMANN_PRES MLC_LAT MLC_LON MLC_CLASS MLC_WIND MLC_PRES USA_GUST BOM_GUST BOM_GUST_PER REUNION_GUST REUNION_GUST_PER USA_SEAHGT USA_SEARAD_NE USA_SEARAD_SE USA_SEARAD_SW USA_SEARAD_NW STORM_SPEED STORM_DIR
1971005S18039 1971 2 SI MM EDITH 1971-01-05 06:00:00 TS -18.0000 39.0000 reunion main 105 102 _____O______O_ -1 -18.0000 39.0000 2 9.90000 -18.0000 39.0000 TC 25 1 276
1971005S18039 1971 2 SI MM EDITH 1971-01-05 09:00:00 TS -17.9925 38.9225 main 102 101 _____P______P_ -1 -17.9925 38.9225 2 -17.9925 38.9225 TC 25 2 270
1971005S18039 1971 2 SI MM EDITH 1971-01-05 12:00:00 TS -18.0000 38.8000 reunion main 101 94 _____O______O_ -1 -18.0000 38.8000 99 9.90000 -18.0000 38.8000 TC 25 3 262
1971005S18039 1971 2 SI MM EDITH 1971-01-05 15:00:00 TS -18.0350 38.6075 main 94 94 _____P______P_ -1 -18.0350 38.6075 99 -18.0350 38.6075 TC 25 4 255
1971005S18039 1971 2 SI MM EDITH 1971-01-05 18:00:00 TS -18.1000 38.4000 reunion main 94 91 _____O______O_ -1 -18.1000 38.4000 99 9.90000 -18.1000 38.4000 TC 25 4 248
1971005S18039 1971 2 SI MM EDITH 1971-01-05 21:00:00 TS -18.1775 38.2275 main 99 94 _____P______P_ -1 -18.1775 38.2275 99 -18.1775 38.2275 TC 25 3 235
1971005S18039 1971 2 SI MM EDITH 1971-01-06 00:00:00 TS -18.3000 38.1000 reunion main 103 103 _____O______O_ -1 -18.3000 38.1000 99 9.90000 -18.3000 38.1000 TC 25 4 211
1971005S18039 1971 2 SI MM EDITH 1971-01-06 03:00:00 TS -18.4850 38.0275 main 114 114 _____P______P_ -1 -18.4850 38.0275 99 -18.4850 38.0275 TC 27 4 193
1971005S18039 1971 2 SI MM EDITH 1971-01-06 06:00:00 TS -18.7000 38.0000 reunion main 125 125 _____O______O_ -1 -18.7000 38.0000 2 9.90000 -18.7000 38.0000 TC 30 4 191
1971005S18039 1971 2 SI MM EDITH 1971-01-06 09:00:00 TS -18.8774 37.9477 main 130 130 _____P______P_ -1 -18.8774 37.9477 2 -18.8774 37.9477 TC 30 4 0
1971005S18039 1971 2 SI MM EDITH 1971-01-06 12:00:00 TS -19.1000 38.0000 reunion main 153 153 _____O______O_ -1 -19.1000 38.0000 99 9.90000 -19.1000 38.0000 TC 30 6 153
1971005S18039 1971 2 SI MM EDITH 1971-01-06 15:00:00 TS -19.4501 38.2621 main 207 207 _____P______P_ -1 -19.4501 38.2621 99 -19.4501 38.2621 TC 30 9 141
1971005S18039 1971 2 SI MM EDITH 1971-01-06 18:00:00 TS -19.8000 38.6000 reunion main 252 252 _____O______O_ -1 -19.8000 38.6000 99 9.90000 -19.8000 38.6000 TC 30 8 135
1971005S18039 1971 2 SI MM EDITH 1971-01-06 21:00:00 TS -20.0225 38.8652 main 291 291 _____P______P_ -1 -20.0225 38.8652 99 -20.0225 38.8652 TC 30 6 130
1971005S18039 1971 2 SI MM EDITH 1971-01-07 00:00:00 TS -20.2000 39.1000 reunion main 321 321 _____O______O_ -1 -20.2000 39.1000 99 9.90000 -20.2000 39.1000 TC 30 6 133
1971005S18039 1971 2 SI MM EDITH 1971-01-07 03:00:00 TS -20.4150 39.3150 main 352 352 _____P______P_ -1 -20.4150 39.3150 99 -20.4150 39.3150 TC 30 6 137
1971005S18039 1971 2 SI MM EDITH 1971-01-07 06:00:00 TS -20.6000 39.5000 reunion main 382 382 _____O______O_ -1 -20.6000 39.5000 2 9.90000 -20.6000 39.5000 TC 30 4 132
1971005S18039 1971 2 SI MM EDITH 1971-01-07 09:00:00 TS -20.7075 39.6651 main 399 384 _____P______P_ -1 -20.7075 39.6651 2 -20.7075 39.6651 TC 30 3 125
1971005S18039 1971 2 SI MM EDITH 1971-01-07 12:00:00 TS -20.8000 39.8000 reunion main 384 370 _____O______O_ -1 -20.8000 39.8000 99 9.90000 -20.8000 39.8000 TC 30 3 133
1971005S18039 1971 2 SI MM EDITH 1971-01-07 15:00:00 TS -20.9200 39.9076 main 370 352 _____P______P_ -1 -20.9200 39.9076 99 -20.9200 39.9076 TC 30 4 149
1971005S18039 1971 2 SI MM EDITH 1971-01-07 18:00:00 TS -21.1000 40.0000 reunion main 352 332 _____O______O_ -1 -21.1000 40.0000 99 9.90000 -21.1000 40.0000 TC 30 5 160
1971005S18039 1971 2 SI MM EDITH 1971-01-07 21:00:00 TS -21.4150 40.0999 main 332 314 _____P______P_ -1 -21.4150 40.0999 99 -21.4150 40.0999 TC 32 6 163
1971005S18039 1971 2 SI MM EDITH 1971-01-08 00:00:00 TS -21.7000 40.2000 reunion main 314 302 _____O______O_ -1 -21.7000 40.2000 99 9.90000 -21.7000 40.2000 TC 35 4 157
1971005S18039 1971 2 SI MM EDITH 1971-01-08 03:00:00 TS -21.7724 40.2627 main 302 292 _____P______P_ -1 -21.7724 40.2627 99 -21.7724 40.2627 TC 35 2 119
1971005S18039 1971 2 SI MM EDITH 1971-01-08 06:00:00 TS -21.8000 40.4000 reunion main 292 249 _____O______O_ -1 -21.8000 40.4000 3 9.90000 -21.8000 40.4000 TC 35 5 111
1971005S18039 1971 2 SI MM EDITH 1971-01-08 09:00:00 TS -21.9503 40.7722 main 248 216 _____P______P_ -1 -21.9503 40.7722 3 -21.9503 40.7722 TC 35 7 115
1971005S18039 1971 2 SI MM EDITH 1971-01-08 12:00:00 TS -22.1000 41.1000 reunion main 216 216 _____O______O_ -1 -22.1000 41.1000 99 9.90000 -22.1000 41.1000 TC 35 3 143
1971005S18039 1971 2 SI MM EDITH 1971-01-08 15:00:00 TS -22.1715 40.9527 main 226 226 _____P______P_ -1 -22.1715 40.9527 99 -22.1715 40.9527 TC 35 1 220
1971005S18039 1971 2 SI MM EDITH 1971-01-08 18:00:00 TS -22.2000 41.0000 reunion main 226 133 _____O______O_ -1 -22.2000 41.0000 99 9.90000 -22.2000 41.0000 TC 35 9 93
1971005S18039 1971 2 SI MM EDITH 1971-01-08 21:00:00 TS -22.2175 41.9250 main 133 20 _____P______P_ -1 -22.2175 41.9250 99 -22.2175 41.9250 TC 35 19 90
1971005S18039 1971 2 SI MM EDITH 1971-01-09 00:00:00 TS -22.2000 43.0000 reunion main 20 0 _____O______O_ -1 -22.2000 43.0000 99 9.90000 -22.2000 43.0000 TC 35 15 87
1971005S18039 1971 2 SI MM EDITH 1971-01-09 03:00:00 TS -22.1342 43.5776 main 0 0 _____P______P_ -1 -22.1342 43.5776 99 -22.1342 43.5776 TC 30 8 83
1971005S18039 1971 2 SI MM EDITH 1971-01-09 06:00:00 TS -22.1000 43.9000 reunion main 0 0 _____O______O_ -1 -22.1000 43.9000 3 9.90000 -22.1000 43.9000 TC 25 5 94
1971005S18039 1971 2 SI MM EDITH 1971-01-09 09:00:00 TS -22.1697 44.0651 main 0 0 _____P______P_ -1 -22.1697 44.0651 3 -22.1697 44.0651 TC 25 3 126
1971005S18039 1971 2 SI MM EDITH 1971-01-09 12:00:00 TS -22.3000 44.2000 reunion main 0 0 _____O______O_ -1 -22.3000 44.2000 99 9.90000 -22.3000 44.2000 TC 25 5 124
1971005S18039 1971 2 SI MM EDITH 1971-01-09 15:00:00 TS -22.4501 44.5199 main 0 0 _____P______P_ -1 -22.4501 44.5199 99 -22.4501 44.5199 TC 25 7 115
1971005S18039 1971 2 SI MM EDITH 1971-01-09 18:00:00 TS -22.6000 44.9000 reunion main 0 0 _____O______O_ -1 -22.6000 44.9000 99 9.90000 -22.6000 44.9000 TC 25 7 111
1971005S18039 1971 2 SI MM EDITH 1971-01-09 21:00:00 TS -22.7075 45.2651 main 0 0 _____P______P_ -1 -22.7075 45.2651 99 -22.7075 45.2651 TC 22 7 107
1971005S18039 1971 2 SI MM EDITH 1971-01-10 00:00:00 TS -22.8000 45.6000 reunion main 0 0 _____O______O_ -1 -22.8000 45.6000 99 9.90000 -22.8000 45.6000 TC 20 6 109
1971005S18039 1971 2 SI MM EDITH 1971-01-10 03:00:00 TS -22.8975 45.8699 main 0 0 _____P______P_ -1 -22.8975 45.8699 99 -22.8975 45.8699 TC 17 5 113
1971005S18039 1971 2 SI MM EDITH 1971-01-10 06:00:00 TS -23.0000 46.1000 reunion main 0 _____O______O_ -1 -23.0000 46.1000 6 9.90000 -23.0000 46.1000 TC 15 5 116

About IBTrACS Database

This database is a web-friendly format of International Best Track Archive for Climate Stewardship (IBTrACS), a global best track data archive curated by NOAA dating back to 1842.

Updated: 2021-10-19